sensor_id;sensor_type;location;lat;lon;timestamp;temperature;humidity
26907;DHT22;14472;56.880;16.658;2023-06-04T00:00:25;14.80;1.00
26907;DHT22;14472;56.880;16.658;2023-06-04T00:02:51;14.90;1.00
26907;DHT22;14472;56.880;16.658;2023-06-04T00:05:17;14.80;1.00
26907;DHT22;14472;56.880;16.658;2023-06-04T00:07:43;14.80;1.00
26907;DHT22;14472;56.880;16.658;2023-06-04T00:10:09;14.80;1.00
26907;DHT22;14472;56.880;16.658;2023-06-04T00:12:35;14.80;1.00
26907;DHT22;14472;56.880;16.658;2023-06-04T00:15:02;14.80;1.00
26907;DHT22;14472;56.880;16.658;2023-06-04T00:17:27;14.80;1.00
26907;DHT22;14472;56.880;16.658;2023-06-04T00:19:53;14.70;1.00
26907;DHT22;14472;56.880;16.658;2023-06-04T00:22:19;14.70;1.00
26907;DHT22;14472;56.880;16.658;2023-06-04T00:24:45;14.70;1.00
26907;DHT22;14472;56.880;16.658;2023-06-04T00:27:10;14.70;1.00
26907;DHT22;14472;56.880;16.658;2023-06-04T00:29:36;14.70;1.00
26907;DHT22;14472;56.880;16.658;2023-06-04T00:32:02;14.60;1.00
26907;DHT22;14472;56.880;16.658;2023-06-04T00:34:28;14.60;1.00
26907;DHT22;14472;56.880;16.658;2023-06-04T00:36:54;14.60;1.00
26907;DHT22;14472;56.880;16.658;2023-06-04T00:39:20;14.60;1.00
26907;DHT22;14472;56.880;16.658;2023-06-04T00:41:46;14.60;1.00
26907;DHT22;14472;56.880;16.658;2023-06-04T00:44:12;14.60;1.00
26907;DHT22;14472;56.880;16.658;2023-06-04T00:46:38;14.60;1.00
26907;DHT22;14472;56.880;16.658;2023-06-04T00:49:05;14.50;1.00
26907;DHT22;14472;56.880;16.658;2023-06-04T00:51:31;14.50;1.00
26907;DHT22;14472;56.880;16.658;2023-06-04T00:53:58;14.50;1.00
26907;DHT22;14472;56.880;16.658;2023-06-04T00:56:24;14.50;1.00
26907;DHT22;14472;56.880;16.658;2023-06-04T00:58:50;14.50;1.00
26907;DHT22;14472;56.880;16.658;2023-06-04T01:04:00;14.40;1.00
26907;DHT22;14472;56.880;16.658;2023-06-04T01:06:35;14.40;1.00
26907;DHT22;14472;56.880;16.658;2023-06-04T01:09:01;14.40;1.00
26907;DHT22;14472;56.880;16.658;2023-06-04T01:11:36;14.30;1.00
26907;DHT22;14472;56.880;16.658;2023-06-04T01:14:08;14.30;1.00
26907;DHT22;14472;56.880;16.658;2023-06-04T01:16:55;14.30;1.00
26907;DHT22;14472;56.880;16.658;2023-06-04T01:19:36;14.20;1.00
26907;DHT22;14472;56.880;16.658;2023-06-04T01:22:33;14.20;1.00
26907;DHT22;14472;56.880;16.658;2023-06-04T01:25:09;14.10;1.00
26907;DHT22;14472;56.880;16.658;2023-06-04T01:27:38;14.10;1.00
26907;DHT22;14472;56.880;16.658;2023-06-04T01:30:07;14.10;1.00
26907;DHT22;14472;56.880;16.658;2023-06-04T01:32:33;14.10;1.00
26907;DHT22;14472;56.880;16.658;2023-06-04T01:34:59;14.00;1.00
26907;DHT22;14472;56.880;16.658;2023-06-04T01:37:25;14.00;1.00
26907;DHT22;14472;56.880;16.658;2023-06-04T01:39:51;13.90;1.00
26907;DHT22;14472;56.880;16.658;2023-06-04T01:42:17;13.90;1.00
26907;DHT22;14472;56.880;16.658;2023-06-04T01:44:43;13.80;1.00
26907;DHT22;14472;56.880;16.658;2023-06-04T01:47:09;13.80;1.00
26907;DHT22;14472;56.880;16.658;2023-06-04T01:49:34;13.80;1.00
26907;DHT22;14472;56.880;16.658;2023-06-04T01:52:00;13.80;1.00
26907;DHT22;14472;56.880;16.658;2023-06-04T01:54:26;13.80;1.00
26907;DHT22;14472;56.880;16.658;2023-06-04T01:56:52;13.80;1.00
26907;DHT22;14472;56.880;16.658;2023-06-04T01:59:17;13.80;1.00
26907;DHT22;14472;56.880;16.658;2023-06-04T02:01:43;13.80;1.00
26907;DHT22;14472;56.880;16.658;2023-06-04T02:04:09;13.80;1.00
26907;DHT22;14472;56.880;16.658;2023-06-04T02:06:34;13.80;1.00
26907;DHT22;14472;56.880;16.658;2023-06-04T02:09:02;13.80;1.00
26907;DHT22;14472;56.880;16.658;2023-06-04T02:11:28;13.80;1.00
26907;DHT22;14472;56.880;16.658;2023-06-04T02:13:54;13.80;1.00
26907;DHT22;14472;56.880;16.658;2023-06-04T02:16:20;13.80;1.00
26907;DHT22;14472;56.880;16.658;2023-06-04T02:18:46;13.80;1.00
26907;DHT22;14472;56.880;16.658;2023-06-04T02:21:12;13.80;1.00
26907;DHT22;14472;56.880;16.658;2023-06-04T02:23:37;13.80;1.00
26907;DHT22;14472;56.880;16.658;2023-06-04T02:26:03;13.80;1.00
26907;DHT22;14472;56.880;16.658;2023-06-04T02:28:29;13.80;1.00
26907;DHT22;14472;56.880;16.658;2023-06-04T02:30:55;13.70;1.00
26907;DHT22;14472;56.880;16.658;2023-06-04T02:33:20;13.70;1.00
26907;DHT22;14472;56.880;16.658;2023-06-04T02:35:46;13.70;1.00
26907;DHT22;14472;56.880;16.658;2023-06-04T02:38:12;13.80;1.00
26907;DHT22;14472;56.880;16.658;2023-06-04T02:40:38;13.80;1.00
26907;DHT22;14472;56.880;16.658;2023-06-04T02:43:04;13.80;1.00
26907;DHT22;14472;56.880;16.658;2023-06-04T02:45:30;13.80;1.00
26907;DHT22;14472;56.880;16.658;2023-06-04T02:47:57;13.80;1.00
26907;DHT22;14472;56.880;16.658;2023-06-04T02:50:22;13.80;1.00
26907;DHT22;14472;56.880;16.658;2023-06-04T02:52:48;13.80;1.00
26907;DHT22;14472;56.880;16.658;2023-06-04T02:55:14;13.80;1.00
26907;DHT22;14472;56.880;16.658;2023-06-04T02:57:41;13.80;1.00
26907;DHT22;14472;56.880;16.658;2023-06-04T03:00:09;13.80;1.00
26907;DHT22;14472;56.880;16.658;2023-06-04T03:02:39;13.80;1.00
26907;DHT22;14472;56.880;16.658;2023-06-04T03:05:05;13.80;1.00
26907;DHT22;14472;56.880;16.658;2023-06-04T03:07:30;13.80;1.00
26907;DHT22;14472;56.880;16.658;2023-06-04T03:09:56;13.80;1.00
26907;DHT22;14472;56.880;16.658;2023-06-04T03:12:22;13.80;1.00
26907;DHT22;14472;56.880;16.658;2023-06-04T03:14:48;13.80;1.00
26907;DHT22;14472;56.880;16.658;2023-06-04T03:17:14;13.80;1.00
26907;DHT22;14472;56.880;16.658;2023-06-04T03:19:41;13.80;1.00
26907;DHT22;14472;56.880;16.658;2023-06-04T03:22:08;13.80;1.00
26907;DHT22;14472;56.880;16.658;2023-06-04T03:24:36;13.80;1.00
26907;DHT22;14472;56.880;16.658;2023-06-04T03:27:03;13.80;1.00
26907;DHT22;14472;56.880;16.658;2023-06-04T03:29:30;13.80;1.00
26907;DHT22;14472;56.880;16.658;2023-06-04T03:31:56;13.90;1.00
26907;DHT22;14472;56.880;16.658;2023-06-04T03:34:22;13.80;1.00
26907;DHT22;14472;56.880;16.658;2023-06-04T03:36:54;13.90;1.00
26907;DHT22;14472;56.880;16.658;2023-06-04T03:39:21;13.90;1.00
26907;DHT22;14472;56.880;16.658;2023-06-04T03:41:48;13.90;1.00
26907;DHT22;14472;56.880;16.658;2023-06-04T03:44:14;13.90;1.00
26907;DHT22;14472;56.880;16.658;2023-06-04T03:46:41;13.90;1.00
26907;DHT22;14472;56.880;16.658;2023-06-04T03:49:06;13.90;1.00
26907;DHT22;14472;56.880;16.658;2023-06-04T03:51:32;13.90;1.00
26907;DHT22;14472;56.880;16.658;2023-06-04T03:53:58;14.00;1.00
26907;DHT22;14472;56.880;16.658;2023-06-04T03:56:24;14.00;1.00
26907;DHT22;14472;56.880;16.658;2023-06-04T03:58:52;13.90;1.00
26907;DHT22;14472;56.880;16.658;2023-06-04T04:01:18;14.00;1.00
26907;DHT22;14472;56.880;16.658;2023-06-04T04:03:44;14.00;1.00
26907;DHT22;14472;56.880;16.658;2023-06-04T04:06:14;14.00;1.00
26907;DHT22;14472;56.880;16.658;2023-06-04T04:08:40;14.10;1.00
26907;DHT22;14472;56.880;16.658;2023-06-04T04:11:14;14.10;1.00
26907;DHT22;14472;56.880;16.658;2023-06-04T04:13:40;14.10;1.00
26907;DHT22;14472;56.880;16.658;2023-06-04T04:16:06;14.20;1.00
26907;DHT22;14472;56.880;16.658;2023-06-04T04:18:36;14.30;1.00
26907;DHT22;14472;56.880;16.658;2023-06-04T04:21:03;14.30;1.00
26907;DHT22;14472;56.880;16.658;2023-06-04T04:23:30;14.30;1.00
26907;DHT22;14472;56.880;16.658;2023-06-04T04:25:59;14.40;1.00
26907;DHT22;14472;56.880;16.658;2023-06-04T04:28:25;14.40;1.00
26907;DHT22;14472;56.880;16.658;2023-06-04T04:30:57;14.50;1.00
26907;DHT22;14472;56.880;16.658;2023-06-04T04:33:24;14.50;1.00
26907;DHT22;14472;56.880;16.658;2023-06-04T04:35:51;14.50;1.00
26907;DHT22;14472;56.880;16.658;2023-06-04T04:38:19;14.60;1.00
26907;DHT22;14472;56.880;16.658;2023-06-04T04:40:46;14.60;1.00
26907;DHT22;14472;56.880;16.658;2023-06-04T04:43:13;14.60;1.00
26907;DHT22;14472;56.880;16.658;2023-06-04T04:45:39;14.70;1.00
26907;DHT22;14472;56.880;16.658;2023-06-04T04:48:05;14.70;1.00
26907;DHT22;14472;56.880;16.658;2023-06-04T04:50:31;14.70;1.00
26907;DHT22;14472;56.880;16.658;2023-06-04T04:52:58;14.70;1.00
26907;DHT22;14472;56.880;16.658;2023-06-04T04:55:24;14.80;1.00
26907;DHT22;14472;56.880;16.658;2023-06-04T04:57:50;14.80;1.00
26907;DHT22;14472;56.880;16.658;2023-06-04T05:00:16;14.80;1.00
26907;DHT22;14472;56.880;16.658;2023-06-04T05:02:42;14.80;1.00
26907;DHT22;14472;56.880;16.658;2023-06-04T05:05:08;14.80;1.00
26907;DHT22;14472;56.880;16.658;2023-06-04T05:07:36;14.90;1.00
26907;DHT22;14472;56.880;16.658;2023-06-04T05:10:02;14.90;1.00
26907;DHT22;14472;56.880;16.658;2023-06-04T05:12:30;14.90;1.00
26907;DHT22;14472;56.880;16.658;2023-06-04T05:14:57;14.90;1.00
26907;DHT22;14472;56.880;16.658;2023-06-04T05:17:22;15.00;1.00
26907;DHT22;14472;56.880;16.658;2023-06-04T05:19:58;15.00;1.00
26907;DHT22;14472;56.880;16.658;2023-06-04T05:22:29;15.10;1.00
26907;DHT22;14472;56.880;16.658;2023-06-04T05:24:57;15.10;1.00
26907;DHT22;14472;56.880;16.658;2023-06-04T05:27:25;15.20;1.00
26907;DHT22;14472;56.880;16.658;2023-06-04T05:29:51;15.20;1.00
26907;DHT22;14472;56.880;16.658;2023-06-04T05:32:17;15.20;1.00
26907;DHT22;14472;56.880;16.658;2023-06-04T05:34:43;15.30;1.00
26907;DHT22;14472;56.880;16.658;2023-06-04T05:37:09;15.30;1.00
26907;DHT22;14472;56.880;16.658;2023-06-04T05:39:35;15.30;1.00
26907;DHT22;14472;56.880;16.658;2023-06-04T05:42:01;15.40;1.00
26907;DHT22;14472;56.880;16.658;2023-06-04T05:44:27;15.50;1.00
26907;DHT22;14472;56.880;16.658;2023-06-04T05:46:52;15.50;1.00
26907;DHT22;14472;56.880;16.658;2023-06-04T05:49:18;15.50;1.00
26907;DHT22;14472;56.880;16.658;2023-06-04T05:51:45;15.60;1.00
26907;DHT22;14472;56.880;16.658;2023-06-04T05:54:11;15.60;1.00
26907;DHT22;14472;56.880;16.658;2023-06-04T05:56:36;15.70;1.00
26907;DHT22;14472;56.880;16.658;2023-06-04T05:59:02;15.70;1.00
26907;DHT22;14472;56.880;16.658;2023-06-04T06:01:28;15.80;1.00
26907;DHT22;14472;56.880;16.658;2023-06-04T06:03:55;15.80;1.00
26907;DHT22;14472;56.880;16.658;2023-06-04T06:06:20;15.90;1.00
26907;DHT22;14472;56.880;16.658;2023-06-04T06:08:46;15.90;1.00
26907;DHT22;14472;56.880;16.658;2023-06-04T06:11:12;15.90;1.00
26907;DHT22;14472;56.880;16.658;2023-06-04T06:13:38;16.00;1.00
26907;DHT22;14472;56.880;16.658;2023-06-04T06:16:03;16.00;1.00
26907;DHT22;14472;56.880;16.658;2023-06-04T06:18:30;16.10;1.00
26907;DHT22;14472;56.880;16.658;2023-06-04T06:20:56;16.10;1.00
26907;DHT22;14472;56.880;16.658;2023-06-04T06:23:21;16.10;1.00
26907;DHT22;14472;56.880;16.658;2023-06-04T06:25:49;16.20;1.00
26907;DHT22;14472;56.880;16.658;2023-06-04T06:28:18;16.20;1.00
26907;DHT22;14472;56.880;16.658;2023-06-04T06:30:43;16.30;1.00
26907;DHT22;14472;56.880;16.658;2023-06-04T06:33:10;16.30;1.00
26907;DHT22;14472;56.880;16.658;2023-06-04T06:35:36;16.30;1.00
26907;DHT22;14472;56.880;16.658;2023-06-04T06:38:02;16.40;1.00
26907;DHT22;14472;56.880;16.658;2023-06-04T06:40:27;16.50;1.00
26907;DHT22;14472;56.880;16.658;2023-06-04T06:42:56;16.60;1.00
26907;DHT22;14472;56.880;16.658;2023-06-04T06:45:21;16.70;1.00
26907;DHT22;14472;56.880;16.658;2023-06-04T06:47:47;16.80;1.00
26907;DHT22;14472;56.880;16.658;2023-06-04T06:50:13;16.90;1.00
26907;DHT22;14472;56.880;16.658;2023-06-04T06:52:39;16.90;1.00
26907;DHT22;14472;56.880;16.658;2023-06-04T06:55:05;17.00;1.00
26907;DHT22;14472;56.880;16.658;2023-06-04T06:57:31;17.00;1.00
26907;DHT22;14472;56.880;16.658;2023-06-04T06:59:57;17.10;1.00
26907;DHT22;14472;56.880;16.658;2023-06-04T07:02:23;17.20;1.00
26907;DHT22;14472;56.880;16.658;2023-06-04T07:04:49;17.30;1.00
26907;DHT22;14472;56.880;16.658;2023-06-04T07:07:14;17.40;1.00
26907;DHT22;14472;56.880;16.658;2023-06-04T07:09:40;17.50;1.00
26907;DHT22;14472;56.880;16.658;2023-06-04T07:12:06;17.60;1.00
26907;DHT22;14472;56.880;16.658;2023-06-04T07:14:32;17.60;1.00
26907;DHT22;14472;56.880;16.658;2023-06-04T07:16:58;17.70;1.00
26907;DHT22;14472;56.880;16.658;2023-06-04T07:19:23;17.80;1.00
26907;DHT22;14472;56.880;16.658;2023-06-04T07:21:50;17.90;1.00
26907;DHT22;14472;56.880;16.658;2023-06-04T07:24:16;17.90;1.00
26907;DHT22;14472;56.880;16.658;2023-06-04T07:26:41;18.00;1.00
26907;DHT22;14472;56.880;16.658;2023-06-04T07:29:07;18.10;1.00
26907;DHT22;14472;56.880;16.658;2023-06-04T07:31:33;18.20;1.00
26907;DHT22;14472;56.880;16.658;2023-06-04T07:33:59;18.30;1.00
26907;DHT22;14472;56.880;16.658;2023-06-04T07:36:24;18.40;1.00
26907;DHT22;14472;56.880;16.658;2023-06-04T07:38:50;18.50;1.00
26907;DHT22;14472;56.880;16.658;2023-06-04T07:41:16;18.50;1.00
26907;DHT22;14472;56.880;16.658;2023-06-04T07:43:43;18.50;1.00
26907;DHT22;14472;56.880;16.658;2023-06-04T07:46:09;18.60;1.00
26907;DHT22;14472;56.880;16.658;2023-06-04T07:48:35;18.70;1.00
26907;DHT22;14472;56.880;16.658;2023-06-04T07:51:02;18.80;1.00
26907;DHT22;14472;56.880;16.658;2023-06-04T07:53:28;18.90;1.00
26907;DHT22;14472;56.880;16.658;2023-06-04T07:55:58;18.90;1.00
26907;DHT22;14472;56.880;16.658;2023-06-04T07:58:23;19.00;1.00
26907;DHT22;14472;56.880;16.658;2023-06-04T08:00:49;19.10;1.00
26907;DHT22;14472;56.880;16.658;2023-06-04T08:03:15;19.20;1.00
26907;DHT22;14472;56.880;16.658;2023-06-04T08:05:41;19.20;1.00
26907;DHT22;14472;56.880;16.658;2023-06-04T08:08:06;19.20;1.00
26907;DHT22;14472;56.880;16.658;2023-06-04T08:10:32;19.30;1.00
26907;DHT22;14472;56.880;16.658;2023-06-04T08:12:58;19.40;1.00
26907;DHT22;14472;56.880;16.658;2023-06-04T08:15:24;19.40;1.00
26907;DHT22;14472;56.880;16.658;2023-06-04T08:17:50;19.50;1.00
26907;DHT22;14472;56.880;16.658;2023-06-04T08:20:15;19.50;1.00
26907;DHT22;14472;56.880;16.658;2023-06-04T08:22:41;19.60;1.00
26907;DHT22;14472;56.880;16.658;2023-06-04T08:25:08;19.70;1.00
26907;DHT22;14472;56.880;16.658;2023-06-04T08:27:34;19.80;1.00
26907;DHT22;14472;56.880;16.658;2023-06-04T08:30:01;19.90;1.00
26907;DHT22;14472;56.880;16.658;2023-06-04T08:32:27;20.00;1.00
26907;DHT22;14472;56.880;16.658;2023-06-04T08:34:54;20.10;1.00
26907;DHT22;14472;56.880;16.658;2023-06-04T08:37:20;20.10;1.00
26907;DHT22;14472;56.880;16.658;2023-06-04T08:39:46;20.10;1.00
26907;DHT22;14472;56.880;16.658;2023-06-04T08:42:31;20.20;1.00
26907;DHT22;14472;56.880;16.658;2023-06-04T08:44:57;20.40;1.00
26907;DHT22;14472;56.880;16.658;2023-06-04T08:47:25;20.30;1.00
26907;DHT22;14472;56.880;16.658;2023-06-04T08:49:58;20.30;1.00
26907;DHT22;14472;56.880;16.658;2023-06-04T08:52:24;20.30;1.00
26907;DHT22;14472;56.880;16.658;2023-06-04T08:54:51;20.40;1.00
26907;DHT22;14472;56.880;16.658;2023-06-04T08:57:21;20.50;1.00
26907;DHT22;14472;56.880;16.658;2023-06-04T08:59:47;20.60;1.00
26907;DHT22;14472;56.880;16.658;2023-06-04T09:02:17;20.60;1.00
26907;DHT22;14472;56.880;16.658;2023-06-04T09:04:44;20.70;1.00
26907;DHT22;14472;56.880;16.658;2023-06-04T09:07:12;20.70;1.00
26907;DHT22;14472;56.880;16.658;2023-06-04T09:09:39;20.70;1.00
26907;DHT22;14472;56.880;16.658;2023-06-04T09:12:10;20.70;1.00
26907;DHT22;14472;56.880;16.658;2023-06-04T09:14:36;20.70;1.00
26907;DHT22;14472;56.880;16.658;2023-06-04T09:17:02;20.60;1.00
26907;DHT22;14472;56.880;16.658;2023-06-04T09:19:28;20.60;1.00
26907;DHT22;14472;56.880;16.658;2023-06-04T09:21:57;20.60;1.00
26907;DHT22;14472;56.880;16.658;2023-06-04T09:24:42;20.70;1.00
26907;DHT22;14472;56.880;16.658;2023-06-04T09:29:39;20.70;1.00
26907;DHT22;14472;56.880;16.658;2023-06-04T09:32:05;20.80;1.00
26907;DHT22;14472;56.880;16.658;2023-06-04T09:34:31;20.90;1.00
26907;DHT22;14472;56.880;16.658;2023-06-04T09:36:58;20.90;1.00
26907;DHT22;14472;56.880;16.658;2023-06-04T09:39:24;21.00;1.00
26907;DHT22;14472;56.880;16.658;2023-06-04T09:42:02;21.10;1.00
26907;DHT22;14472;56.880;16.658;2023-06-04T09:44:29;21.10;1.00
26907;DHT22;14472;56.880;16.658;2023-06-04T09:46:57;21.10;1.00
26907;DHT22;14472;56.880;16.658;2023-06-04T09:49:22;21.20;1.00
26907;DHT22;14472;56.880;16.658;2023-06-04T09:51:48;21.30;1.00
26907;DHT22;14472;56.880;16.658;2023-06-04T09:54:14;21.20;1.00
26907;DHT22;14472;56.880;16.658;2023-06-04T09:56:40;21.30;1.00
26907;DHT22;14472;56.880;16.658;2023-06-04T09:59:08;21.40;1.00
26907;DHT22;14472;56.880;16.658;2023-06-04T10:01:38;21.50;1.00
26907;DHT22;14472;56.880;16.658;2023-06-04T10:04:07;21.50;1.00
26907;DHT22;14472;56.880;16.658;2023-06-04T10:06:34;21.50;1.00
26907;DHT22;14472;56.880;16.658;2023-06-04T10:09:05;21.50;1.00
26907;DHT22;14472;56.880;16.658;2023-06-04T10:11:38;21.50;1.00
26907;DHT22;14472;56.880;16.658;2023-06-04T10:14:21;21.60;1.00
26907;DHT22;14472;56.880;16.658;2023-06-04T10:16:50;21.60;1.00
26907;DHT22;14472;56.880;16.658;2023-06-04T10:19:17;21.60;1.00
26907;DHT22;14472;56.880;16.658;2023-06-04T10:21:43;21.60;1.00
26907;DHT22;14472;56.880;16.658;2023-06-04T10:24:10;21.60;1.00
26907;DHT22;14472;56.880;16.658;2023-06-04T10:26:37;21.70;1.00
26907;DHT22;14472;56.880;16.658;2023-06-04T10:29:03;21.70;1.00
26907;DHT22;14472;56.880;16.658;2023-06-04T10:31:29;21.80;1.00
26907;DHT22;14472;56.880;16.658;2023-06-04T10:33:56;21.90;1.00
26907;DHT22;14472;56.880;16.658;2023-06-04T10:36:23;21.80;1.00
26907;DHT22;14472;56.880;16.658;2023-06-04T10:38:53;21.90;1.00
26907;DHT22;14472;56.880;16.658;2023-06-04T10:41:20;21.90;1.00
26907;DHT22;14472;56.880;16.658;2023-06-04T10:43:51;21.90;1.00
26907;DHT22;14472;56.880;16.658;2023-06-04T10:46:18;22.00;1.00
26907;DHT22;14472;56.880;16.658;2023-06-04T10:48:52;22.00;1.00
26907;DHT22;14472;56.880;16.658;2023-06-04T10:51:33;22.00;1.00
26907;DHT22;14472;56.880;16.658;2023-06-04T10:54:01;22.10;1.00
26907;DHT22;14472;56.880;16.658;2023-06-04T10:56:28;22.10;1.00
26907;DHT22;14472;56.880;16.658;2023-06-04T10:58:55;22.10;1.00
26907;DHT22;14472;56.880;16.658;2023-06-04T11:01:28;22.20;1.00
26907;DHT22;14472;56.880;16.658;2023-06-04T11:03:55;22.30;1.00
26907;DHT22;14472;56.880;16.658;2023-06-04T11:06:22;22.30;1.00
26907;DHT22;14472;56.880;16.658;2023-06-04T11:08:48;22.30;1.00
26907;DHT22;14472;56.880;16.658;2023-06-04T11:11:15;22.30;1.00
26907;DHT22;14472;56.880;16.658;2023-06-04T11:13:41;22.40;1.00
26907;DHT22;14472;56.880;16.658;2023-06-04T11:16:18;22.40;1.00
26907;DHT22;14472;56.880;16.658;2023-06-04T11:18:56;22.40;1.00
26907;DHT22;14472;56.880;16.658;2023-06-04T11:21:23;22.50;1.00
26907;DHT22;14472;56.880;16.658;2023-06-04T11:23:49;22.50;1.00
26907;DHT22;14472;56.880;16.658;2023-06-04T11:26:20;22.50;1.00
26907;DHT22;14472;56.880;16.658;2023-06-04T11:28:49;22.50;1.00
26907;DHT22;14472;56.880;16.658;2023-06-04T11:31:15;22.60;1.00
26907;DHT22;14472;56.880;16.658;2023-06-04T11:33:47;22.60;1.00
26907;DHT22;14472;56.880;16.658;2023-06-04T11:39:00;22.60;1.00
26907;DHT22;14472;56.880;16.658;2023-06-04T11:41:30;22.60;1.00
26907;DHT22;14472;56.880;16.658;2023-06-04T11:43:57;22.60;1.00
26907;DHT22;14472;56.880;16.658;2023-06-04T11:46:24;22.60;1.00
26907;DHT22;14472;56.880;16.658;2023-06-04T11:48:53;22.60;1.00
26907;DHT22;14472;56.880;16.658;2023-06-04T11:51:22;22.70;1.00
26907;DHT22;14472;56.880;16.658;2023-06-04T11:53:48;22.70;1.00
26907;DHT22;14472;56.880;16.658;2023-06-04T11:56:18;22.80;1.00
26907;DHT22;14472;56.880;16.658;2023-06-04T11:58:44;22.70;1.00
26907;DHT22;14472;56.880;16.658;2023-06-04T12:01:12;22.80;1.00
26907;DHT22;14472;56.880;16.658;2023-06-04T12:03:42;22.80;1.00
26907;DHT22;14472;56.880;16.658;2023-06-04T12:06:19;22.80;1.00
26907;DHT22;14472;56.880;16.658;2023-06-04T12:11:32;22.90;1.00
26907;DHT22;14472;56.880;16.658;2023-06-04T12:14:04;22.80;1.00
26907;DHT22;14472;56.880;16.658;2023-06-04T12:16:31;22.70;1.00
26907;DHT22;14472;56.880;16.658;2023-06-04T12:19:24;22.70;1.00
26907;DHT22;14472;56.880;16.658;2023-06-04T12:24:31;22.60;1.00
26907;DHT22;14472;56.880;16.658;2023-06-04T12:29:28;22.60;1.00
26907;DHT22;14472;56.880;16.658;2023-06-04T12:32:05;22.70;1.00
26907;DHT22;14472;56.880;16.658;2023-06-04T12:34:33;22.80;1.00
26907;DHT22;14472;56.880;16.658;2023-06-04T12:36:59;22.70;1.00
26907;DHT22;14472;56.880;16.658;2023-06-04T12:39:26;22.70;1.00
26907;DHT22;14472;56.880;16.658;2023-06-04T12:41:51;22.70;1.00
26907;DHT22;14472;56.880;16.658;2023-06-04T12:44:17;22.70;1.00
26907;DHT22;14472;56.880;16.658;2023-06-04T12:46:43;22.70;1.00
26907;DHT22;14472;56.880;16.658;2023-06-04T12:52:03;22.70;1.00
26907;DHT22;14472;56.880;16.658;2023-06-04T12:54:30;22.60;1.00
26907;DHT22;14472;56.880;16.658;2023-06-04T12:56:56;22.70;1.00
26907;DHT22;14472;56.880;16.658;2023-06-04T12:59:24;22.70;1.00
26907;DHT22;14472;56.880;16.658;2023-06-04T13:05:06;22.80;1.00
26907;DHT22;14472;56.880;16.658;2023-06-04T13:07:33;22.90;1.00
26907;DHT22;14472;56.880;16.658;2023-06-04T13:09:59;22.90;1.00
26907;DHT22;14472;56.880;16.658;2023-06-04T13:12:24;22.90;1.00
26907;DHT22;14472;56.880;16.658;2023-06-04T13:14:50;22.90;1.00
26907;DHT22;14472;56.880;16.658;2023-06-04T13:17:16;22.90;1.00
26907;DHT22;14472;56.880;16.658;2023-06-04T13:19:42;22.90;1.00
26907;DHT22;14472;56.880;16.658;2023-06-04T13:22:08;22.90;1.00
26907;DHT22;14472;56.880;16.658;2023-06-04T13:24:34;22.90;1.00
26907;DHT22;14472;56.880;16.658;2023-06-04T13:27:00;22.90;1.00
26907;DHT22;14472;56.880;16.658;2023-06-04T13:29:26;23.00;1.00
26907;DHT22;14472;56.880;16.658;2023-06-04T13:31:52;23.00;1.00
26907;DHT22;14472;56.880;16.658;2023-06-04T13:34:18;23.00;1.00
26907;DHT22;14472;56.880;16.658;2023-06-04T13:36:44;22.90;1.00
26907;DHT22;14472;56.880;16.658;2023-06-04T13:39:10;23.00;1.00
26907;DHT22;14472;56.880;16.658;2023-06-04T13:41:36;23.00;1.00
26907;DHT22;14472;56.880;16.658;2023-06-04T13:44:02;23.10;1.00
26907;DHT22;14472;56.880;16.658;2023-06-04T13:46:27;23.00;1.00
26907;DHT22;14472;56.880;16.658;2023-06-04T13:48:53;23.10;1.00
26907;DHT22;14472;56.880;16.658;2023-06-04T13:51:19;23.10;1.00
26907;DHT22;14472;56.880;16.658;2023-06-04T13:53:44;23.10;1.00
26907;DHT22;14472;56.880;16.658;2023-06-04T13:56:10;23.10;1.00
26907;DHT22;14472;56.880;16.658;2023-06-04T13:58:36;23.10;1.00
26907;DHT22;14472;56.880;16.658;2023-06-04T14:01:02;23.10;1.00
26907;DHT22;14472;56.880;16.658;2023-06-04T14:03:27;23.20;1.00
26907;DHT22;14472;56.880;16.658;2023-06-04T14:05:53;23.20;1.00
26907;DHT22;14472;56.880;16.658;2023-06-04T14:08:19;23.30;1.00
26907;DHT22;14472;56.880;16.658;2023-06-04T14:10:45;23.30;1.00
26907;DHT22;14472;56.880;16.658;2023-06-04T14:13:10;23.20;1.00
26907;DHT22;14472;56.880;16.658;2023-06-04T14:15:37;23.10;1.00
26907;DHT22;14472;56.880;16.658;2023-06-04T14:18:04;23.20;1.00
26907;DHT22;14472;56.880;16.658;2023-06-04T14:20:30;22.80;1.00
26907;DHT22;14472;56.880;16.658;2023-06-04T14:23:13;22.70;1.00
26907;DHT22;14472;56.880;16.658;2023-06-04T14:25:39;22.40;1.00
26907;DHT22;14472;56.880;16.658;2023-06-04T14:28:05;22.30;1.00
26907;DHT22;14472;56.880;16.658;2023-06-04T14:30:30;22.10;1.00
26907;DHT22;14472;56.880;16.658;2023-06-04T14:32:56;22.00;1.00
26907;DHT22;14472;56.880;16.658;2023-06-04T14:35:22;21.70;1.00
26907;DHT22;14472;56.880;16.658;2023-06-04T14:37:48;21.40;1.00
26907;DHT22;14472;56.880;16.658;2023-06-04T14:40:14;21.40;1.00
26907;DHT22;14472;56.880;16.658;2023-06-04T14:42:40;21.30;1.00
26907;DHT22;14472;56.880;16.658;2023-06-04T14:45:06;21.30;1.00
26907;DHT22;14472;56.880;16.658;2023-06-04T14:47:32;21.30;1.00
26907;DHT22;14472;56.880;16.658;2023-06-04T14:49:57;21.20;1.00
26907;DHT22;14472;56.880;16.658;2023-06-04T14:52:23;21.00;1.00
26907;DHT22;14472;56.880;16.658;2023-06-04T14:54:49;20.80;1.00
26907;DHT22;14472;56.880;16.658;2023-06-04T14:57:15;21.00;1.00
26907;DHT22;14472;56.880;16.658;2023-06-04T14:59:44;20.80;1.00
26907;DHT22;14472;56.880;16.658;2023-06-04T15:02:10;20.70;1.00
26907;DHT22;14472;56.880;16.658;2023-06-04T15:04:36;20.80;1.00
26907;DHT22;14472;56.880;16.658;2023-06-04T15:07:02;20.90;1.00
26907;DHT22;14472;56.880;16.658;2023-06-04T15:09:29;20.90;1.00
26907;DHT22;14472;56.880;16.658;2023-06-04T15:11:55;20.90;1.00
26907;DHT22;14472;56.880;16.658;2023-06-04T15:14:21;20.80;1.00
26907;DHT22;14472;56.880;16.658;2023-06-04T15:16:46;20.90;1.00
26907;DHT22;14472;56.880;16.658;2023-06-04T15:19:12;20.90;1.00
26907;DHT22;14472;56.880;16.658;2023-06-04T15:21:38;20.90;1.00
26907;DHT22;14472;56.880;16.658;2023-06-04T15:24:03;21.00;1.00
26907;DHT22;14472;56.880;16.658;2023-06-04T15:26:29;20.90;1.00
26907;DHT22;14472;56.880;16.658;2023-06-04T15:28:58;20.90;1.00
26907;DHT22;14472;56.880;16.658;2023-06-04T15:31:23;21.00;1.00
26907;DHT22;14472;56.880;16.658;2023-06-04T15:33:49;21.00;1.00
26907;DHT22;14472;56.880;16.658;2023-06-04T15:36:15;21.00;1.00
26907;DHT22;14472;56.880;16.658;2023-06-04T15:38:41;21.10;1.00
26907;DHT22;14472;56.880;16.658;2023-06-04T15:41:06;21.00;1.00
26907;DHT22;14472;56.880;16.658;2023-06-04T15:43:32;21.00;1.00
26907;DHT22;14472;56.880;16.658;2023-06-04T15:45:58;21.10;1.00
26907;DHT22;14472;56.880;16.658;2023-06-04T15:48:24;21.10;1.00
26907;DHT22;14472;56.880;16.658;2023-06-04T15:50:53;21.10;1.00